sensor_id;sensor_type;location;lat;lon;timestamp;temperature;humidity
12164;DHT22;6145;50.192;10.064;2022-08-19T00:00:35;22.60;65.90
12164;DHT22;6145;50.192;10.064;2022-08-19T00:03:03;22.50;66.00
12164;DHT22;6145;50.192;10.064;2022-08-19T00:05:30;22.50;66.10
12164;DHT22;6145;50.192;10.064;2022-08-19T00:07:59;22.60;66.40
12164;DHT22;6145;50.192;10.064;2022-08-19T00:10:26;22.40;66.20
12164;DHT22;6145;50.192;10.064;2022-08-19T00:12:52;22.40;66.30
12164;DHT22;6145;50.192;10.064;2022-08-19T00:15:20;22.40;66.30
12164;DHT22;6145;50.192;10.064;2022-08-19T00:17:48;22.40;66.40
12164;DHT22;6145;50.192;10.064;2022-08-19T00:20:17;22.40;66.50
12164;DHT22;6145;50.192;10.064;2022-08-19T00:22:45;22.40;66.70
12164;DHT22;6145;50.192;10.064;2022-08-19T00:25:15;22.30;66.70
12164;DHT22;6145;50.192;10.064;2022-08-19T00:27:42;22.40;66.90
12164;DHT22;6145;50.192;10.064;2022-08-19T00:30:09;22.30;66.90
12164;DHT22;6145;50.192;10.064;2022-08-19T00:32:38;22.20;67.00
12164;DHT22;6145;50.192;10.064;2022-08-19T00:35:06;22.20;67.00
12164;DHT22;6145;50.192;10.064;2022-08-19T00:37:35;22.20;67.00
12164;DHT22;6145;50.192;10.064;2022-08-19T00:40:06;22.30;67.00
12164;DHT22;6145;50.192;10.064;2022-08-19T00:42:34;22.20;66.90
12164;DHT22;6145;50.192;10.064;2022-08-19T00:45:02;22.20;67.00
12164;DHT22;6145;50.192;10.064;2022-08-19T00:47:29;22.20;67.20
12164;DHT22;6145;50.192;10.064;2022-08-19T00:49:57;22.10;67.30
12164;DHT22;6145;50.192;10.064;2022-08-19T00:52:27;22.00;67.30
12164;DHT22;6145;50.192;10.064;2022-08-19T00:54:55;22.10;67.60
12164;DHT22;6145;50.192;10.064;2022-08-19T00:57:26;22.00;67.60
12164;DHT22;6145;50.192;10.064;2022-08-19T00:59:57;22.00;67.70
12164;DHT22;6145;50.192;10.064;2022-08-19T01:02:25;22.00;67.80
12164;DHT22;6145;50.192;10.064;2022-08-19T01:04:53;21.90;67.80
12164;DHT22;6145;50.192;10.064;2022-08-19T01:07:19;22.00;67.90
12164;DHT22;6145;50.192;10.064;2022-08-19T01:09:46;22.20;68.20
12164;DHT22;6145;50.192;10.064;2022-08-19T01:12:14;21.90;68.00
12164;DHT22;6145;50.192;10.064;2022-08-19T01:14:42;21.90;68.10
12164;DHT22;6145;50.192;10.064;2022-08-19T01:17:11;21.80;68.00
12164;DHT22;6145;50.192;10.064;2022-08-19T01:19:41;21.80;68.00
12164;DHT22;6145;50.192;10.064;2022-08-19T01:22:12;21.80;68.10
12164;DHT22;6145;50.192;10.064;2022-08-19T01:24:44;21.80;68.10
12164;DHT22;6145;50.192;10.064;2022-08-19T01:27:10;21.70;68.00
12164;DHT22;6145;50.192;10.064;2022-08-19T01:29:39;21.70;68.20
12164;DHT22;6145;50.192;10.064;2022-08-19T01:32:06;21.60;68.40
12164;DHT22;6145;50.192;10.064;2022-08-19T01:34:33;21.70;68.50
12164;DHT22;6145;50.192;10.064;2022-08-19T01:37:01;21.70;68.60
12164;DHT22;6145;50.192;10.064;2022-08-19T01:39:34;21.70;68.70
12164;DHT22;6145;50.192;10.064;2022-08-19T01:42:02;21.60;68.60
12164;DHT22;6145;50.192;10.064;2022-08-19T01:44:30;21.60;68.70
12164;DHT22;6145;50.192;10.064;2022-08-19T01:46:57;21.60;68.70
12164;DHT22;6145;50.192;10.064;2022-08-19T01:49:24;21.60;68.70
12164;DHT22;6145;50.192;10.064;2022-08-19T01:51:53;21.80;68.90
12164;DHT22;6145;50.192;10.064;2022-08-19T01:54:21;21.60;68.80
12164;DHT22;6145;50.192;10.064;2022-08-19T01:56:49;21.50;68.70
12164;DHT22;6145;50.192;10.064;2022-08-19T01:59:20;21.50;68.70
12164;DHT22;6145;50.192;10.064;2022-08-19T02:01:48;21.50;68.90
12164;DHT22;6145;50.192;10.064;2022-08-19T02:04:14;21.50;69.70
12164;DHT22;6145;50.192;10.064;2022-08-19T02:06:41;21.50;69.00
12164;DHT22;6145;50.192;10.064;2022-08-19T02:09:08;21.50;69.10
12164;DHT22;6145;50.192;10.064;2022-08-19T02:11:36;21.50;69.30
12164;DHT22;6145;50.192;10.064;2022-08-19T02:14:06;21.50;69.40
12164;DHT22;6145;50.192;10.064;2022-08-19T02:16:35;21.50;69.40
12164;DHT22;6145;50.192;10.064;2022-08-19T02:19:03;21.50;69.40
12164;DHT22;6145;50.192;10.064;2022-08-19T02:21:30;21.50;69.40
12164;DHT22;6145;50.192;10.064;2022-08-19T02:23:57;21.50;69.40
12164;DHT22;6145;50.192;10.064;2022-08-19T02:26:25;21.50;69.60
12164;DHT22;6145;50.192;10.064;2022-08-19T02:28:53;21.40;69.50
12164;DHT22;6145;50.192;10.064;2022-08-19T02:31:22;21.40;69.50
12164;DHT22;6145;50.192;10.064;2022-08-19T02:33:50;21.50;69.70
12164;DHT22;6145;50.192;10.064;2022-08-19T02:36:17;21.50;69.70
12164;DHT22;6145;50.192;10.064;2022-08-19T02:38:44;21.50;69.90
12164;DHT22;6145;50.192;10.064;2022-08-19T02:41:15;21.40;69.80
12164;DHT22;6145;50.192;10.064;2022-08-19T02:43:42;21.50;69.90
12164;DHT22;6145;50.192;10.064;2022-08-19T02:46:14;21.50;69.90
12164;DHT22;6145;50.192;10.064;2022-08-19T02:48:43;21.50;69.90
12164;DHT22;6145;50.192;10.064;2022-08-19T02:51:16;21.50;69.90
12164;DHT22;6145;50.192;10.064;2022-08-19T02:53:42;21.50;69.90
12164;DHT22;6145;50.192;10.064;2022-08-19T02:56:09;21.40;70.60
12164;DHT22;6145;50.192;10.064;2022-08-19T02:58:36;21.50;70.00
12164;DHT22;6145;50.192;10.064;2022-08-19T03:01:03;21.40;70.00
12164;DHT22;6145;50.192;10.064;2022-08-19T03:03:30;21.40;70.10
12164;DHT22;6145;50.192;10.064;2022-08-19T03:06:09;21.40;69.90
12164;DHT22;6145;50.192;10.064;2022-08-19T03:08:38;21.40;70.00
12164;DHT22;6145;50.192;10.064;2022-08-19T03:11:05;21.40;70.00
12164;DHT22;6145;50.192;10.064;2022-08-19T03:13:32;21.30;70.00
12164;DHT22;6145;50.192;10.064;2022-08-19T03:15:59;21.30;70.80
12164;DHT22;6145;50.192;10.064;2022-08-19T03:18:26;21.30;70.30
12164;DHT22;6145;50.192;10.064;2022-08-19T03:20:52;21.30;70.40
12164;DHT22;6145;50.192;10.064;2022-08-19T03:23:20;21.20;70.50
12164;DHT22;6145;50.192;10.064;2022-08-19T03:25:50;21.30;70.70
12164;DHT22;6145;50.192;10.064;2022-08-19T03:28:17;21.20;70.80
12164;DHT22;6145;50.192;10.064;2022-08-19T03:30:55;21.20;70.80
12164;DHT22;6145;50.192;10.064;2022-08-19T03:33:23;21.20;70.80
12164;DHT22;6145;50.192;10.064;2022-08-19T03:36:00;21.20;70.80
12164;DHT22;6145;50.192;10.064;2022-08-19T03:38:27;21.30;70.90
12164;DHT22;6145;50.192;10.064;2022-08-19T03:40:56;21.30;70.90
12164;DHT22;6145;50.192;10.064;2022-08-19T03:43:22;21.30;70.90
12164;DHT22;6145;50.192;10.064;2022-08-19T03:45:59;21.30;70.90
12164;DHT22;6145;50.192;10.064;2022-08-19T03:48:26;21.30;70.80
12164;DHT22;6145;50.192;10.064;2022-08-19T03:50:53;21.30;70.80
12164;DHT22;6145;50.192;10.064;2022-08-19T03:53:19;21.30;70.70
12164;DHT22;6145;50.192;10.064;2022-08-19T03:55:46;21.30;70.70
12164;DHT22;6145;50.192;10.064;2022-08-19T03:58:14;21.30;70.70
12164;DHT22;6145;50.192;10.064;2022-08-19T04:00:42;21.30;70.80
12164;DHT22;6145;50.192;10.064;2022-08-19T04:03:09;21.30;70.90
12164;DHT22;6145;50.192;10.064;2022-08-19T04:05:35;21.20;70.90
12164;DHT22;6145;50.192;10.064;2022-08-19T04:08:03;21.20;70.90
12164;DHT22;6145;50.192;10.064;2022-08-19T04:10:31;21.20;70.90
12164;DHT22;6145;50.192;10.064;2022-08-19T04:12:58;21.30;71.10
12164;DHT22;6145;50.192;10.064;2022-08-19T04:15:27;21.20;71.00
12164;DHT22;6145;50.192;10.064;2022-08-19T04:17:58;21.20;71.20
12164;DHT22;6145;50.192;10.064;2022-08-19T04:20:25;21.20;71.30
12164;DHT22;6145;50.192;10.064;2022-08-19T04:22:52;21.10;71.30
12164;DHT22;6145;50.192;10.064;2022-08-19T04:25:19;21.10;71.50
12164;DHT22;6145;50.192;10.064;2022-08-19T04:27:45;21.10;71.50
12164;DHT22;6145;50.192;10.064;2022-08-19T04:30:14;21.10;71.60
12164;DHT22;6145;50.192;10.064;2022-08-19T04:32:44;21.10;71.60
12164;DHT22;6145;50.192;10.064;2022-08-19T04:35:11;21.10;71.70
12164;DHT22;6145;50.192;10.064;2022-08-19T04:37:38;21.10;71.70
12164;DHT22;6145;50.192;10.064;2022-08-19T04:40:06;21.00;71.70
12164;DHT22;6145;50.192;10.064;2022-08-19T04:42:51;21.00;71.70
12164;DHT22;6145;50.192;10.064;2022-08-19T04:45:18;21.00;71.80
12164;DHT22;6145;50.192;10.064;2022-08-19T04:47:47;21.00;71.90
12164;DHT22;6145;50.192;10.064;2022-08-19T04:50:14;21.00;71.90
12164;DHT22;6145;50.192;10.064;2022-08-19T04:52:41;21.00;72.00
12164;DHT22;6145;50.192;10.064;2022-08-19T04:55:09;21.00;72.00
12164;DHT22;6145;50.192;10.064;2022-08-19T04:57:36;21.00;72.00
12164;DHT22;6145;50.192;10.064;2022-08-19T05:00:06;21.00;72.00
12164;DHT22;6145;50.192;10.064;2022-08-19T05:02:33;21.00;72.00
12164;DHT22;6145;50.192;10.064;2022-08-19T05:05:02;21.00;72.10
12164;DHT22;6145;50.192;10.064;2022-08-19T05:07:28;21.00;72.20
12164;DHT22;6145;50.192;10.064;2022-08-19T05:09:56;20.90;72.10
12164;DHT22;6145;50.192;10.064;2022-08-19T05:12:23;21.00;72.20
12164;DHT22;6145;50.192;10.064;2022-08-19T05:14:50;21.00;72.10
12164;DHT22;6145;50.192;10.064;2022-08-19T05:17:17;21.00;72.10
12164;DHT22;6145;50.192;10.064;2022-08-19T05:19:44;21.00;72.00
12164;DHT22;6145;50.192;10.064;2022-08-19T05:22:29;21.00;72.00
12164;DHT22;6145;50.192;10.064;2022-08-19T05:25:01;21.00;72.00
12164;DHT22;6145;50.192;10.064;2022-08-19T05:27:28;21.10;72.10
12164;DHT22;6145;50.192;10.064;2022-08-19T05:29:54;21.00;72.10
12164;DHT22;6145;50.192;10.064;2022-08-19T05:32:21;21.10;72.10
12164;DHT22;6145;50.192;10.064;2022-08-19T05:34:48;21.10;72.10
12164;DHT22;6145;50.192;10.064;2022-08-19T05:37:15;21.10;72.00
12164;DHT22;6145;50.192;10.064;2022-08-19T05:39:43;21.10;72.00
12164;DHT22;6145;50.192;10.064;2022-08-19T05:42:11;21.10;72.10
12164;DHT22;6145;50.192;10.064;2022-08-19T05:44:40;21.10;72.10
12164;DHT22;6145;50.192;10.064;2022-08-19T05:47:11;21.10;72.10
12164;DHT22;6145;50.192;10.064;2022-08-19T05:49:38;21.10;72.10
12164;DHT22;6145;50.192;10.064;2022-08-19T05:52:07;21.20;72.10
12164;DHT22;6145;50.192;10.064;2022-08-19T05:54:37;21.20;72.10
12164;DHT22;6145;50.192;10.064;2022-08-19T05:57:07;21.20;72.10
12164;DHT22;6145;50.192;10.064;2022-08-19T05:59:34;21.20;72.00
12164;DHT22;6145;50.192;10.064;2022-08-19T06:02:03;21.20;72.10
12164;DHT22;6145;50.192;10.064;2022-08-19T06:04:30;21.20;72.10
12164;DHT22;6145;50.192;10.064;2022-08-19T06:06:57;21.30;72.10
12164;DHT22;6145;50.192;10.064;2022-08-19T06:09:24;21.30;72.00
12164;DHT22;6145;50.192;10.064;2022-08-19T06:11:52;21.30;72.00
12164;DHT22;6145;50.192;10.064;2022-08-19T06:14:22;21.30;72.00
12164;DHT22;6145;50.192;10.064;2022-08-19T06:16:49;21.40;72.10
12164;DHT22;6145;50.192;10.064;2022-08-19T06:19:19;21.40;72.00
12164;DHT22;6145;50.192;10.064;2022-08-19T06:21:48;21.40;72.00
12164;DHT22;6145;50.192;10.064;2022-08-19T06:24:18;21.40;72.00
12164;DHT22;6145;50.192;10.064;2022-08-19T06:26:47;21.40;72.00
12164;DHT22;6145;50.192;10.064;2022-08-19T06:29:16;21.40;72.10
12164;DHT22;6145;50.192;10.064;2022-08-19T06:31:47;21.50;72.20
12164;DHT22;6145;50.192;10.064;2022-08-19T06:34:16;21.50;72.20
12164;DHT22;6145;50.192;10.064;2022-08-19T06:36:46;21.50;72.20
12164;DHT22;6145;50.192;10.064;2022-08-19T06:39:15;21.50;72.20
12164;DHT22;6145;50.192;10.064;2022-08-19T06:41:45;21.50;72.20
12164;DHT22;6145;50.192;10.064;2022-08-19T06:44:13;21.60;72.30
12164;DHT22;6145;50.192;10.064;2022-08-19T06:46:41;21.60;72.30
12164;DHT22;6145;50.192;10.064;2022-08-19T06:49:10;21.60;72.30
12164;DHT22;6145;50.192;10.064;2022-08-19T06:51:40;21.70;72.40
12164;DHT22;6145;50.192;10.064;2022-08-19T06:54:07;21.80;72.40
12164;DHT22;6145;50.192;10.064;2022-08-19T06:56:34;21.80;72.20
12164;DHT22;6145;50.192;10.064;2022-08-19T06:59:02;21.90;72.10
12164;DHT22;6145;50.192;10.064;2022-08-19T07:01:29;21.90;71.90
12164;DHT22;6145;50.192;10.064;2022-08-19T07:03:55;22.00;71.80
12164;DHT22;6145;50.192;10.064;2022-08-19T07:06:24;22.10;71.70
12164;DHT22;6145;50.192;10.064;2022-08-19T07:08:51;22.20;71.60
12164;DHT22;6145;50.192;10.064;2022-08-19T07:11:18;22.20;71.60
12164;DHT22;6145;50.192;10.064;2022-08-19T07:13:46;22.20;71.50
12164;DHT22;6145;50.192;10.064;2022-08-19T07:16:16;22.30;71.40
12164;DHT22;6145;50.192;10.064;2022-08-19T07:18:43;22.40;71.40
12164;DHT22;6145;50.192;10.064;2022-08-19T07:21:12;22.50;71.40
12164;DHT22;6145;50.192;10.064;2022-08-19T07:23:40;22.60;71.40
12164;DHT22;6145;50.192;10.064;2022-08-19T07:26:09;22.80;71.30
12164;DHT22;6145;50.192;10.064;2022-08-19T07:28:36;22.90;71.30
12164;DHT22;6145;50.192;10.064;2022-08-19T07:31:05;23.00;71.10
12164;DHT22;6145;50.192;10.064;2022-08-19T07:33:32;23.10;70.90
12164;DHT22;6145;50.192;10.064;2022-08-19T07:36:01;23.10;70.30
12164;DHT22;6145;50.192;10.064;2022-08-19T07:38:28;23.20;71.00
12164;DHT22;6145;50.192;10.064;2022-08-19T07:40:56;23.20;70.00
12164;DHT22;6145;50.192;10.064;2022-08-19T07:43:22;23.20;69.70
12164;DHT22;6145;50.192;10.064;2022-08-19T07:45:50;23.20;69.60
12164;DHT22;6145;50.192;10.064;2022-08-19T07:48:17;23.30;69.50
12164;DHT22;6145;50.192;10.064;2022-08-19T07:50:44;23.40;69.50
12164;DHT22;6145;50.192;10.064;2022-08-19T07:53:10;23.40;69.40
12164;DHT22;6145;50.192;10.064;2022-08-19T07:55:38;23.60;69.30
12164;DHT22;6145;50.192;10.064;2022-08-19T07:58:06;23.60;68.80
12164;DHT22;6145;50.192;10.064;2022-08-19T08:00:33;23.60;68.60
12164;DHT22;6145;50.192;10.064;2022-08-19T08:03:00;23.60;68.30
12164;DHT22;6145;50.192;10.064;2022-08-19T08:05:27;23.70;68.40
12164;DHT22;6145;50.192;10.064;2022-08-19T08:08:11;23.70;68.40
12164;DHT22;6145;50.192;10.064;2022-08-19T08:10:55;23.70;68.30
12164;DHT22;6145;50.192;10.064;2022-08-19T08:13:24;23.80;68.20
12164;DHT22;6145;50.192;10.064;2022-08-19T08:15:50;24.10;68.20
12164;DHT22;6145;50.192;10.064;2022-08-19T08:18:17;23.90;67.70
12164;DHT22;6145;50.192;10.064;2022-08-19T08:20:45;23.90;67.60
12164;DHT22;6145;50.192;10.064;2022-08-19T08:23:12;24.00;67.50
12164;DHT22;6145;50.192;10.064;2022-08-19T08:25:51;24.00;67.20
12164;DHT22;6145;50.192;10.064;2022-08-19T08:28:18;24.00;67.10
12164;DHT22;6145;50.192;10.064;2022-08-19T08:30:48;24.00;67.00
12164;DHT22;6145;50.192;10.064;2022-08-19T08:33:18;24.10;67.10
12164;DHT22;6145;50.192;10.064;2022-08-19T08:35:47;24.20;67.00
12164;DHT22;6145;50.192;10.064;2022-08-19T08:38:14;24.20;66.70
12164;DHT22;6145;50.192;10.064;2022-08-19T08:40:45;24.20;66.60
12164;DHT22;6145;50.192;10.064;2022-08-19T08:43:23;24.20;66.50
12164;DHT22;6145;50.192;10.064;2022-08-19T08:45:56;24.30;66.50
12164;DHT22;6145;50.192;10.064;2022-08-19T08:48:37;24.40;66.50
12164;DHT22;6145;50.192;10.064;2022-08-19T08:51:10;24.40;66.40
12164;DHT22;6145;50.192;10.064;2022-08-19T08:53:38;24.40;66.20
12164;DHT22;6145;50.192;10.064;2022-08-19T08:56:06;24.50;66.30
12164;DHT22;6145;50.192;10.064;2022-08-19T08:58:45;24.60;66.20
12164;DHT22;6145;50.192;10.064;2022-08-19T09:01:14;24.60;66.10
12164;DHT22;6145;50.192;10.064;2022-08-19T09:03:43;24.70;66.00
12164;DHT22;6145;50.192;10.064;2022-08-19T09:06:14;24.70;65.90
12164;DHT22;6145;50.192;10.064;2022-08-19T09:08:49;24.80;65.80
12164;DHT22;6145;50.192;10.064;2022-08-19T09:11:29;24.80;65.70
12164;DHT22;6145;50.192;10.064;2022-08-19T09:14:07;24.80;65.60
12164;DHT22;6145;50.192;10.064;2022-08-19T09:16:37;24.90;65.60
12164;DHT22;6145;50.192;10.064;2022-08-19T09:19:07;24.90;65.40
12164;DHT22;6145;50.192;10.064;2022-08-19T09:21:34;24.90;65.20
12164;DHT22;6145;50.192;10.064;2022-08-19T09:24:02;24.90;65.00
12164;DHT22;6145;50.192;10.064;2022-08-19T09:26:30;24.90;64.90
12164;DHT22;6145;50.192;10.064;2022-08-19T09:28:58;24.90;64.80
12164;DHT22;6145;50.192;10.064;2022-08-19T09:31:28;24.90;64.60
12164;DHT22;6145;50.192;10.064;2022-08-19T09:33:57;24.90;64.40
12164;DHT22;6145;50.192;10.064;2022-08-19T09:36:25;24.90;64.10
12164;DHT22;6145;50.192;10.064;2022-08-19T09:38:53;24.80;63.50
12164;DHT22;6145;50.192;10.064;2022-08-19T09:41:21;24.80;63.50
12164;DHT22;6145;50.192;10.064;2022-08-19T09:43:50;24.90;63.50
12164;DHT22;6145;50.192;10.064;2022-08-19T09:46:19;24.90;63.20
12164;DHT22;6145;50.192;10.064;2022-08-19T09:48:46;25.00;63.00
12164;DHT22;6145;50.192;10.064;2022-08-19T09:51:17;25.10;62.90
12164;DHT22;6145;50.192;10.064;2022-08-19T09:53:45;25.20;62.70
12164;DHT22;6145;50.192;10.064;2022-08-19T09:56:15;25.30;62.30
12164;DHT22;6145;50.192;10.064;2022-08-19T09:58:42;25.40;62.10
12164;DHT22;6145;50.192;10.064;2022-08-19T10:01:16;25.50;61.40
12164;DHT22;6145;50.192;10.064;2022-08-19T10:03:47;25.50;61.00
12164;DHT22;6145;50.192;10.064;2022-08-19T10:06:15;25.70;60.70
12164;DHT22;6145;50.192;10.064;2022-08-19T10:08:42;25.70;60.50
12164;DHT22;6145;50.192;10.064;2022-08-19T10:11:09;25.90;60.00
12164;DHT22;6145;50.192;10.064;2022-08-19T10:13:36;26.00;59.80
12164;DHT22;6145;50.192;10.064;2022-08-19T10:16:05;26.10;59.80
12164;DHT22;6145;50.192;10.064;2022-08-19T10:18:33;26.20;59.40
12164;DHT22;6145;50.192;10.064;2022-08-19T10:21:07;26.30;59.10
12164;DHT22;6145;50.192;10.064;2022-08-19T10:23:36;26.50;58.30
12164;DHT22;6145;50.192;10.064;2022-08-19T10:26:04;26.60;57.60
12164;DHT22;6145;50.192;10.064;2022-08-19T10:28:33;26.70;57.50
12164;DHT22;6145;50.192;10.064;2022-08-19T10:31:06;26.80;57.50
12164;DHT22;6145;50.192;10.064;2022-08-19T10:33:33;27.00;57.40
12164;DHT22;6145;50.192;10.064;2022-08-19T10:36:02;27.30;57.30
12164;DHT22;6145;50.192;10.064;2022-08-19T10:38:30;27.50;56.70
12164;DHT22;6145;50.192;10.064;2022-08-19T10:41:05;27.60;55.90
12164;DHT22;6145;50.192;10.064;2022-08-19T10:43:32;27.70;55.50
12164;DHT22;6145;50.192;10.064;2022-08-19T10:46:02;27.90;55.10
12164;DHT22;6145;50.192;10.064;2022-08-19T10:48:31;28.00;54.40
12164;DHT22;6145;50.192;10.064;2022-08-19T10:50:58;28.00;53.70
12164;DHT22;6145;50.192;10.064;2022-08-19T10:53:43;28.10;53.10
12164;DHT22;6145;50.192;10.064;2022-08-19T10:56:11;28.20;52.80
12164;DHT22;6145;50.192;10.064;2022-08-19T10:58:55;28.20;52.50
12164;DHT22;6145;50.192;10.064;2022-08-19T11:01:23;28.30;52.30
12164;DHT22;6145;50.192;10.064;2022-08-19T11:03:50;28.30;52.00
12164;DHT22;6145;50.192;10.064;2022-08-19T11:06:18;28.30;51.60
12164;DHT22;6145;50.192;10.064;2022-08-19T11:08:45;28.20;51.30
12164;DHT22;6145;50.192;10.064;2022-08-19T11:11:13;28.10;51.30
12164;DHT22;6145;50.192;10.064;2022-08-19T11:13:41;28.10;51.20
12164;DHT22;6145;50.192;10.064;2022-08-19T11:16:11;28.10;51.00
12164;DHT22;6145;50.192;10.064;2022-08-19T11:18:41;28.10;50.90
12164;DHT22;6145;50.192;10.064;2022-08-19T11:21:10;28.10;50.80
12164;DHT22;6145;50.192;10.064;2022-08-19T11:23:37;28.00;50.80
12164;DHT22;6145;50.192;10.064;2022-08-19T11:26:04;28.00;50.90
12164;DHT22;6145;50.192;10.064;2022-08-19T11:28:33;28.00;51.00
12164;DHT22;6145;50.192;10.064;2022-08-19T11:30:59;28.00;50.90
12164;DHT22;6145;50.192;10.064;2022-08-19T11:33:28;28.00;51.00
12164;DHT22;6145;50.192;10.064;2022-08-19T11:35:57;28.00;51.10
12164;DHT22;6145;50.192;10.064;2022-08-19T11:38:24;28.10;51.00
12164;DHT22;6145;50.192;10.064;2022-08-19T11:40:55;28.10;50.90
12164;DHT22;6145;50.192;10.064;2022-08-19T11:43:22;28.10;51.00
12164;DHT22;6145;50.192;10.064;2022-08-19T11:45:51;28.20;50.80
12164;DHT22;6145;50.192;10.064;2022-08-19T11:48:18;28.20;50.60
12164;DHT22;6145;50.192;10.064;2022-08-19T11:50:47;28.30;50.60
12164;DHT22;6145;50.192;10.064;2022-08-19T11:53:15;28.30;50.20
12164;DHT22;6145;50.192;10.064;2022-08-19T11:55:42;28.30;50.10
12164;DHT22;6145;50.192;10.064;2022-08-19T11:58:10;28.40;49.80
12164;DHT22;6145;50.192;10.064;2022-08-19T12:00:38;28.40;49.50
12164;DHT22;6145;50.192;10.064;2022-08-19T12:03:07;28.40;49.20
12164;DHT22;6145;50.192;10.064;2022-08-19T12:05:36;28.50;49.10
12164;DHT22;6145;50.192;10.064;2022-08-19T12:08:03;28.50;48.70
12164;DHT22;6145;50.192;10.064;2022-08-19T12:10:30;28.50;48.20
12164;DHT22;6145;50.192;10.064;2022-08-19T12:12:56;28.50;47.90
12164;DHT22;6145;50.192;10.064;2022-08-19T12:15:23;28.50;47.80
12164;DHT22;6145;50.192;10.064;2022-08-19T12:17:50;28.50;47.80
12164;DHT22;6145;50.192;10.064;2022-08-19T12:20:24;28.50;47.80
12164;DHT22;6145;50.192;10.064;2022-08-19T12:22:51;28.60;47.90
12164;DHT22;6145;50.192;10.064;2022-08-19T12:25:18;28.60;47.70
12164;DHT22;6145;50.192;10.064;2022-08-19T12:27:46;28.70;47.50
12164;DHT22;6145;50.192;10.064;2022-08-19T12:30:13;28.70;47.30
12164;DHT22;6145;50.192;10.064;2022-08-19T12:32:40;28.70;47.40
12164;DHT22;6145;50.192;10.064;2022-08-19T12:35:08;28.80;47.30
12164;DHT22;6145;50.192;10.064;2022-08-19T12:37:38;28.50;47.00
12164;DHT22;6145;50.192;10.064;2022-08-19T12:40:08;28.90;47.00
12164;DHT22;6145;50.192;10.064;2022-08-19T12:42:37;29.00;47.00
12164;DHT22;6145;50.192;10.064;2022-08-19T12:45:08;29.10;46.90
12164;DHT22;6145;50.192;10.064;2022-08-19T12:47:35;29.10;47.20
12164;DHT22;6145;50.192;10.064;2022-08-19T12:50:03;29.10;46.50
12164;DHT22;6145;50.192;10.064;2022-08-19T12:52:53;29.10;46.50
12164;DHT22;6145;50.192;10.064;2022-08-19T12:55:20;29.20;46.30
12164;DHT22;6145;50.192;10.064;2022-08-19T12:57:46;29.20;46.10
12164;DHT22;6145;50.192;10.064;2022-08-19T13:00:16;29.20;45.90
12164;DHT22;6145;50.192;10.064;2022-08-19T13:02:45;29.20;45.80
12164;DHT22;6145;50.192;10.064;2022-08-19T13:05:14;29.20;45.80
12164;DHT22;6145;50.192;10.064;2022-08-19T13:07:42;29.30;45.80
12164;DHT22;6145;50.192;10.064;2022-08-19T13:10:17;29.30;45.70
12164;DHT22;6145;50.192;10.064;2022-08-19T13:12:47;29.30;45.70
12164;DHT22;6145;50.192;10.064;2022-08-19T13:15:14;29.50;45.70
12164;DHT22;6145;50.192;10.064;2022-08-19T13:17:46;29.40;45.40
12164;DHT22;6145;50.192;10.064;2022-08-19T13:20:15;29.50;45.40
12164;DHT22;6145;50.192;10.064;2022-08-19T13:22:42;29.40;45.30
12164;DHT22;6145;50.192;10.064;2022-08-19T13:25:12;29.40;45.20
12164;DHT22;6145;50.192;10.064;2022-08-19T13:27:39;29.30;45.20
12164;DHT22;6145;50.192;10.064;2022-08-19T13:30:07;29.30;45.20
12164;DHT22;6145;50.192;10.064;2022-08-19T13:32:52;29.30;45.40
12164;DHT22;6145;50.192;10.064;2022-08-19T13:35:43;29.30;45.50
12164;DHT22;6145;50.192;10.064;2022-08-19T13:38:12;29.30;45.60
12164;DHT22;6145;50.192;10.064;2022-08-19T13:40:41;29.40;45.70
12164;DHT22;6145;50.192;10.064;2022-08-19T13:43:08;29.40;45.80
12164;DHT22;6145;50.192;10.064;2022-08-19T13:45:35;29.30;45.80
12164;DHT22;6145;50.192;10.064;2022-08-19T13:48:04;29.30;45.70
12164;DHT22;6145;50.192;10.064;2022-08-19T13:50:33;29.30;45.70
12164;DHT22;6145;50.192;10.064;2022-08-19T13:53:01;29.40;46.00
12164;DHT22;6145;50.192;10.064;2022-08-19T13:55:29;29.30;45.80
12164;DHT22;6145;50.192;10.064;2022-08-19T13:57:59;29.30;45.70
12164;DHT22;6145;50.192;10.064;2022-08-19T14:00:31;29.40;45.80
12164;DHT22;6145;50.192;10.064;2022-08-19T14:02:58;29.30;45.60
12164;DHT22;6145;50.192;10.064;2022-08-19T14:05:26;29.30;45.70
12164;DHT22;6145;50.192;10.064;2022-08-19T14:07:54;29.20;45.60
12164;DHT22;6145;50.192;10.064;2022-08-19T14:10:21;29.30;45.50
12164;DHT22;6145;50.192;10.064;2022-08-19T14:12:48;29.20;45.40
12164;DHT22;6145;50.192;10.064;2022-08-19T14:15:16;29.10;45.30
12164;DHT22;6145;50.192;10.064;2022-08-19T14:17:44;29.00;45.80
12164;DHT22;6145;50.192;10.064;2022-08-19T14:20:12;28.90;46.00
12164;DHT22;6145;50.192;10.064;2022-08-19T14:22:42;28.90;46.10
12164;DHT22;6145;50.192;10.064;2022-08-19T14:25:11;28.90;46.10
12164;DHT22;6145;50.192;10.064;2022-08-19T14:27:39;28.90;46.10
12164;DHT22;6145;50.192;10.064;2022-08-19T14:30:08;30.50;47.20
12164;DHT22;6145;50.192;10.064;2022-08-19T14:32:36;28.90;46.30
12164;DHT22;6145;50.192;10.064;2022-08-19T14:35:04;28.80;46.40
12164;DHT22;6145;50.192;10.064;2022-08-19T14:37:33;28.80;46.40
12164;DHT22;6145;50.192;10.064;2022-08-19T14:39:59;28.80;47.00
12164;DHT22;6145;50.192;10.064;2022-08-19T14:42:26;28.80;47.00
12164;DHT22;6145;50.192;10.064;2022-08-19T14:44:53;28.80;47.00
12164;DHT22;6145;50.192;10.064;2022-08-19T14:47:23;28.80;47.80
12164;DHT22;6145;50.192;10.064;2022-08-19T14:49:51;28.80;47.60
12164;DHT22;6145;50.192;10.064;2022-08-19T14:52:17;28.90;47.50
12164;DHT22;6145;50.192;10.064;2022-08-19T14:54:44;28.90;47.50
12164;DHT22;6145;50.192;10.064;2022-08-19T14:57:11;28.90;47.70
12164;DHT22;6145;50.192;10.064;2022-08-19T14:59:38;28.90;47.60
12164;DHT22;6145;50.192;10.064;2022-08-19T15:02:05;29.00;47.50
12164;DHT22;6145;50.192;10.064;2022-08-19T15:04:32;29.00;47.30
12164;DHT22;6145;50.192;10.064;2022-08-19T15:07:18;29.00;47.10
12164;DHT22;6145;50.192;10.064;2022-08-19T15:09:49;29.00;47.00
12164;DHT22;6145;50.192;10.064;2022-08-19T15:12:17;29.00;46.90
12164;DHT22;6145;50.192;10.064;2022-08-19T15:14:43;29.00;46.70
12164;DHT22;6145;50.192;10.064;2022-08-19T15:17:16;29.00;46.60
12164;DHT22;6145;50.192;10.064;2022-08-19T15:20:18;29.00;46.50
12164;DHT22;6145;50.192;10.064;2022-08-19T15:22:47;29.00;46.50
12164;DHT22;6145;50.192;10.064;2022-08-19T15:25:15;29.00;46.30
12164;DHT22;6145;50.192;10.064;2022-08-19T15:27:44;28.90;46.20
12164;DHT22;6145;50.192;10.064;2022-08-19T15:30:11;28.90;46.20
12164;DHT22;6145;50.192;10.064;2022-08-19T15:32:38;28.90;46.30
12164;DHT22;6145;50.192;10.064;2022-08-19T15:35:06;28.90;46.40
12164;DHT22;6145;50.192;10.064;2022-08-19T15:37:33;28.90;46.30
12164;DHT22;6145;50.192;10.064;2022-08-19T15:40:03;28.90;46.20